Time;durP1;ratioP1;P1;durP2;ratioP2;P2;SDS_P1;SDS_P2;PMS_P1;PMS_P2;Temp;Humidity;BMP_temperature;BMP_pressure;BME280_temperature;BME280_humidity;BME280_pressure;Samples;Min_cycle;Max_cycle;Signal;HPM_P1;HPM_P2
2021/08/13 00:00:51;;;;;;;;;;;;;;;18.64;81.83;101898.16;5082812;28;20434;-58
2021/08/13 00:03:20;;;;;;;;;;;;;;;18.62;81.82;101897.44;5085543;28;19924;-59
2021/08/13 00:05:47;;;;;;;;;;;;;;;18.51;82.37;101901.00;5084300;28;19932;-58
2021/08/13 00:08:13;;;;;;;;;;;;;;;18.53;82.43;101906.22;5068139;28;19950;-59
2021/08/13 00:10:40;;;;;;;;;;;;;;;18.49;82.51;101905.63;5064823;28;19982;-59
2021/08/13 00:13:07;;;;;;;;;;;;;;;18.45;82.80;101912.16;5064088;28;19977;-47
2021/08/13 00:15:33;;;;;;;;;;;;;;;18.36;83.05;101896.94;5081731;28;19931;-50
2021/08/13 00:18:00;;;;;;;;;;;;;;;18.36;83.16;101903.09;5086615;28;19928;-52
2021/08/13 00:20:27;;;;;;;;;;;;;;;18.29;83.66;101899.25;5065555;28;19924;-47
2021/08/13 00:22:53;;;;;;;;;;;;;;;18.25;83.37;101905.78;5083725;28;19985;-51
2021/08/13 00:25:20;;;;;;;;;;;;;;;18.30;83.56;101895.63;5079053;28;19943;-48
2021/08/13 00:27:47;;;;;;;;;;;;;;;18.22;84.07;101900.72;5082724;28;19925;-51
2021/08/13 00:30:13;;;;;;;;;;;;;;;18.23;83.96;101899.75;5083862;28;19924;-52
2021/08/13 00:32:40;;;;;;;;;;;;;;;18.22;83.93;101900.72;5063667;28;19929;-47
2021/08/13 00:35:07;;;;;;;;;;;;;;;18.15;84.02;101894.22;5079860;28;19924;-49
2021/08/13 00:37:33;;;;;;;;;;;;;;;18.20;83.84;101906.19;5066341;28;20046;-44
2021/08/13 00:40:00;;;;;;;;;;;;;;;18.21;83.75;101904.34;5078286;28;20370;-47
2021/08/13 00:42:27;;;;;;;;;;;;;;;18.17;83.65;101902.91;5066346;28;19931;-50
2021/08/13 00:44:53;;;;;;;;;;;;;;;18.21;83.33;101909.69;5080722;28;19925;-49
2021/08/13 00:47:20;;;;;;;;;;;;;;;18.18;83.43;101909.94;5084909;28;20442;-49
2021/08/13 00:49:47;;;;;;;;;;;;;;;18.15;83.63;101911.03;5083412;28;19925;-45
2021/08/13 00:52:14;;;;;;;;;;;;;;;18.08;83.53;101910.66;5076408;28;20432;-46
2021/08/13 00:54:41;;;;;;;;;;;;;;;18.10;83.52;101921.19;5087007;28;19974;-47
2021/08/13 00:57:07;;;;;;;;;;;;;;;18.08;83.56;101913.31;5066215;28;19924;-47
2021/08/13 00:59:34;;;;;;;;;;;;;;;17.97;83.68;101921.34;5063330;28;19931;-48
2021/08/13 01:02:01;;;;;;;;;;;;;;;17.95;83.87;101920.59;5084109;28;19935;-46
2021/08/13 01:04:27;;;;;;;;;;;;;;;17.98;83.96;101916.84;5054066;28;19930;-51
2021/08/13 01:06:54;;;;;;;;;;;;;;;17.85;84.10;101920.47;5085783;28;19923;-45
2021/08/13 01:09:21;;;;;;;;;;;;;;;17.85;84.29;101922.28;5082713;28;19928;-46
2021/08/13 01:11:53;;;;;;;;;;;;;;;17.90;84.18;101933.38;5057226;28;19925;-46
2021/08/13 01:14:23;;;;;;;;;;;;;;;17.83;84.68;101941.03;5074926;28;19932;-49
2021/08/13 01:16:51;;;;;;;;;;;;;;;17.94;84.60;101950.00;5063445;28;19969;-46
2021/08/13 01:19:17;;;;;;;;;;;;;;;17.78;85.04;101939.66;5063535;28;19932;-49
2021/08/13 01:21:50;;;;;;;;;;;;;;;17.76;85.46;101942.47;5081981;28;19925;-47
2021/08/13 01:24:18;;;;;;;;;;;;;;;17.73;85.46;101948.88;5079470;28;19924;-48
2021/08/13 01:26:47;;;;;;;;;;;;;;;17.73;85.79;101945.38;5064120;28;19924;-58
2021/08/13 01:29:18;;;;;;;;;;;;;;;17.68;86.02;101948.41;5048155;28;19928;-58
2021/08/13 01:31:50;;;;;;;;;;;;;;;17.60;86.67;101949.94;5059851;28;20446;-57
2021/08/13 01:34:18;;;;;;;;;;;;;;;17.59;86.43;101941.13;5072781;28;20345;-58
2021/08/13 01:36:46;;;;;;;;;;;;;;;17.59;86.41;101941.13;5060127;28;19924;-58
2021/08/13 01:39:12;;;;;;;;;;;;;;;17.57;86.21;101945.72;5067701;28;19935;-49
2021/08/13 01:41:39;;;;;;;;;;;;;;;17.59;86.25;101943.78;5065990;28;19935;-58
2021/08/13 01:44:06;;;;;;;;;;;;;;;17.63;85.95;101955.00;5060044;28;20375;-59
2021/08/13 01:46:33;;;;;;;;;;;;;;;17.60;86.34;101953.47;5086142;28;19924;-58
2021/08/13 01:48:59;;;;;;;;;;;;;;;17.54;87.14;101953.94;5079353;28;19963;-58
2021/08/13 01:51:26;;;;;;;;;;;;;;;17.59;86.95;101957.09;5049758;28;19925;-58
2021/08/13 01:53:53;;;;;;;;;;;;;;;17.59;87.08;101949.09;5045922;28;19924;-58
2021/08/13 01:56:20;;;;;;;;;;;;;;;17.63;87.24;101941.72;5047033;28;19924;-58
2021/08/13 01:58:46;;;;;;;;;;;;;;;17.57;87.32;101943.91;5058795;28;20003;-58
2021/08/13 02:01:13;;;;;;;;;;;;;;;17.56;87.62;101944.00;5052895;28;19932;-58
2021/08/13 02:03:40;;;;;;;;;;;;;;;17.67;87.11;101941.38;5067666;28;20370;-58
2021/08/13 02:06:06;;;;;;;;;;;;;;;17.64;86.88;101938.09;5058031;28;20387;-58
2021/08/13 02:08:34;;;;;;;;;;;;;;;17.65;86.67;101942.47;5062208;28;19927;-58
2021/08/13 02:11:00;;;;;;;;;;;;;;;17.77;86.04;101944.16;5060902;28;20295;-58
2021/08/13 02:13:27;;;;;;;;;;;;;;;17.70;85.97;101948.28;5062553;28;19970;-58
2021/08/13 02:15:58;;;;;;;;;;;;;;;17.62;86.11;101940.88;5064688;28;19924;-58
2021/08/13 02:18:24;;;;;;;;;;;;;;;17.63;86.39;101939.94;5054990;28;19928;-58
2021/08/13 02:20:52;;;;;;;;;;;;;;;17.61;86.01;101938.34;5078867;28;20043;-58
2021/08/13 02:23:19;;;;;;;;;;;;;;;17.66;85.96;101942.34;5084336;28;19928;-57
2021/08/13 02:25:46;;;;;;;;;;;;;;;17.70;86.22;101949.09;5081460;28;19924;-57
2021/08/13 02:28:13;;;;;;;;;;;;;;;17.62;86.34;101940.88;5058128;28;19932;-58
2021/08/13 02:30:40;;;;;;;;;;;;;;;17.55;86.49;101937.84;5081236;28;19959;-58
2021/08/13 02:33:07;;;;;;;;;;;;;;;17.58;86.39;101942.91;5043928;28;19971;-58
2021/08/13 02:35:34;;;;;;;;;;;;;;;17.57;86.70;101941.25;5057732;28;19928;-58
2021/08/13 02:38:06;;;;;;;;;;;;;;;17.56;86.83;101936.03;5059576;28;19928;-58
2021/08/13 02:40:34;;;;;;;;;;;;;;;17.57;87.14;101930.63;5062461;28;19932;-58
2021/08/13 02:43:04;;;;;;;;;;;;;;;17.55;87.67;101934.34;5049426;28;19929;-57
2021/08/13 02:45:37;;;;;;;;;;;;;;;17.50;87.45;101931.19;5055051;28;19932;-59
2021/08/13 02:48:04;;;;;;;;;;;;;;;17.46;87.29;101919.94;5055854;28;19932;-59
2021/08/13 02:50:31;;;;;;;;;;;;;;;17.48;87.34;101926.00;5061470;28;19967;-59
2021/08/13 02:53:02;;;;;;;;;;;;;;;17.53;87.56;101930.94;5055000;28;19933;-59
2021/08/13 02:55:48;;;;;;;;;;;;;;;17.45;88.02;101925.38;5055970;28;19925;-58
2021/08/13 02:58:16;;;;;;;;;;;;;;;17.43;87.55;101932.66;5037961;28;19971;-59
2021/08/13 03:00:43;;;;;;;;;;;;;;;17.40;87.56;101929.25;5057539;28;19933;-58
2021/08/13 03:03:10;;;;;;;;;;;;;;;17.35;87.46;101918.13;5059173;28;20391;-58
2021/08/13 03:05:40;;;;;;;;;;;;;;;17.34;87.40;101915.56;5024730;28;20432;-58
2021/08/13 03:08:06;;;;;;;;;;;;;;;17.33;87.36;101914.75;5061753;28;19932;-58
2021/08/13 03:10:33;;;;;;;;;;;;;;;17.40;86.98;101909.81;5058940;28;19934;-58
2021/08/13 03:12:59;;;;;;;;;;;;;;;17.34;87.15;101911.13;5056491;28;19924;-58
2021/08/13 03:15:26;;;;;;;;;;;;;;;17.32;87.06;101913.03;5056060;28;19929;-57
2021/08/13 03:17:53;;;;;;;;;;;;;;;17.28;87.40;101903.59;5054547;28;19979;-57
2021/08/13 03:20:19;;;;;;;;;;;;;;;17.31;87.16;101900.72;5047956;28;19975;-57
2021/08/13 03:22:46;;;;;;;;;;;;;;;17.27;87.20;101893.09;5055019;28;20610;-57
2021/08/13 03:25:13;;;;;;;;;;;;;;;17.24;87.42;101887.03;5061716;28;20391;-57
2021/08/13 03:27:41;;;;;;;;;;;;;;;17.21;87.44;101881.13;5062081;28;19929;-57
2021/08/13 03:30:08;;;;;;;;;;;;;;;17.20;87.10;101882.91;5051052;28;19925;-58
2021/08/13 03:32:35;;;;;;;;;;;;;;;17.25;87.20;101885.25;5071099;28;19932;-57
2021/08/13 03:35:02;;;;;;;;;;;;;;;17.16;87.67;101888.59;5057366;28;19958;-57
2021/08/13 03:37:30;;;;;;;;;;;;;;;17.14;87.40;101891.38;5066182;28;19924;-47
2021/08/13 03:39:57;;;;;;;;;;;;;;;17.13;87.08;101888.84;5086830;28;19992;-48
2021/08/13 03:42:24;;;;;;;;;;;;;;;17.06;87.20;101885.81;5061757;28;19928;-51
2021/08/13 03:44:50;;;;;;;;;;;;;;;17.02;87.30;101890.50;5076173;28;19991;-49
2021/08/13 03:47:17;;;;;;;;;;;;;;;17.10;87.07;101897.03;5057034;28;19974;-46
2021/08/13 03:49:44;;;;;;;;;;;;;;;17.00;88.43;101894.22;5073214;28;19959;-51
2021/08/13 03:52:10;;;;;;;;;;;;;;;16.96;88.48;101901.63;5075008;28;19928;-48
2021/08/13 03:54:37;;;;;;;;;;;;;;;16.91;88.89;101895.78;5076025;28;19974;-47
2021/08/13 03:57:04;;;;;;;;;;;;;;;16.96;88.62;101900.75;5075382;28;19929;-48
2021/08/13 03:59:30;;;;;;;;;;;;;;;16.99;88.93;101900.53;5071191;28;20061;-49
2021/08/13 04:01:57;;;;;;;;;;;;;;;16.93;89.22;101901.00;5073647;28;20312;-48
2021/08/13 04:04:24;;;;;;;;;;;;;;;16.85;89.46;101904.19;5075841;28;19974;-46
2021/08/13 04:06:50;;;;;;;;;;;;;;;16.85;89.53;101906.84;5075770;28;19931;-47
2021/08/13 04:09:17;;;;;;;;;;;;;;;16.89;89.47;101905.66;5075891;28;19931;-57
2021/08/13 04:11:44;;;;;;;;;;;;;;;16.89;89.12;101906.53;5075687;28;19935;-57
2021/08/13 04:14:10;;;;;;;;;;;;;;;16.89;88.92;101893.25;5075499;28;20299;-57
2021/08/13 04:16:37;;;;;;;;;;;;;;;16.92;88.92;101902.81;5074623;28;19924;-57
2021/08/13 04:19:04;;;;;;;;;;;;;;;16.96;88.72;101898.97;5072832;28;19925;-57
2021/08/13 04:21:30;;;;;;;;;;;;;;;16.96;88.57;101895.44;5074579;28;19925;-57
2021/08/13 04:23:57;;;;;;;;;;;;;;;16.91;88.82;101898.44;5075492;28;20295;-57
2021/08/13 04:26:24;;;;;;;;;;;;;;;16.88;89.48;101899.50;5040815;28;20296;-48
2021/08/13 04:28:50;;;;;;;;;;;;;;;16.86;89.41;101890.78;5071211;28;19997;-46
2021/08/13 04:31:17;;;;;;;;;;;;;;;16.86;88.96;101901.41;5085018;28;19978;-46
2021/08/13 04:33:44;;;;;;;;;;;;;;;16.89;88.94;101903.88;5062249;28;19924;-46
2021/08/13 04:36:10;;;;;;;;;;;;;;;16.91;89.30;101906.41;5085449;28;19924;-47
2021/08/13 04:38:37;;;;;;;;;;;;;;;16.97;89.66;101913.06;5084572;28;19924;-49
2021/08/13 04:41:04;;;;;;;;;;;;;;;16.88;90.06;101912.78;5078824;28;19928;-48
2021/08/13 04:43:30;;;;;;;;;;;;;;;16.89;90.44;101911.84;5060950;28;20011;-46
2021/08/13 04:45:57;;;;;;;;;;;;;;;16.92;90.78;101910.78;5092578;28;19947;-47
2021/08/13 04:48:23;;;;;;;;;;;;;;;16.95;90.69;101915.00;5055091;28;19925;-49
2021/08/13 04:50:50;;;;;;;;;;;;;;;16.95;90.37;101907.88;5069147;28;19928;-48
2021/08/13 04:53:17;;;;;;;;;;;;;;;16.96;90.78;101914.91;5092723;28;20410;-57
2021/08/13 04:55:43;;;;;;;;;;;;;;;16.98;90.51;101914.78;5077374;28;19924;-57
2021/08/13 04:58:10;;;;;;;;;;;;;;;17.03;90.93;101909.97;5094786;28;20402;-57
2021/08/13 05:00:37;;;;;;;;;;;;;;;17.10;91.25;101915.63;5074882;28;20296;-57
2021/08/13 05:03:06;;;;;;;;;;;;;;;17.12;91.61;101921.69;5073380;28;19924;-59
2021/08/13 05:05:33;;;;;;;;;;;;;;;17.15;91.44;101921.47;5072295;28;19925;-57
2021/08/13 05:08:00;;;;;;;;;;;;;;;17.21;91.66;101913.88;5056825;28;19932;-59
2021/08/13 05:10:27;;;;;;;;;;;;;;;17.24;91.73;101918.09;5057071;28;19925;-58
2021/08/13 05:12:55;;;;;;;;;;;;;;;17.24;91.42;101916.28;5074567;28;19925;-58
2021/08/13 05:15:22;;;;;;;;;;;;;;;17.26;91.28;101925.94;5073473;28;19928;-58
2021/08/13 05:17:48;;;;;;;;;;;;;;;17.23;91.80;101929.69;5071888;28;19935;-58
2021/08/13 05:20:16;;;;;;;;;;;;;;;17.27;91.51;101931.16;5073939;28;19924;-58
2021/08/13 05:22:42;;;;;;;;;;;;;;;17.31;91.38;101934.44;5074544;28;20003;-57
2021/08/13 05:25:10;;;;;;;;;;;;;;;17.34;91.53;101935.06;5074334;28;19928;-57
2021/08/13 05:27:37;;;;;;;;;;;;;;;17.38;91.54;101939.16;5055115;28;19928;-58
2021/08/13 05:30:04;;;;;;;;;;;;;;;17.43;91.38;101941.47;5069263;28;19924;-47
2021/08/13 05:32:31;;;;;;;;;;;;;;;17.48;91.45;101949.94;5073099;28;19924;-49
2021/08/13 05:34:58;;;;;;;;;;;;;;;17.50;91.38;101945.34;5071588;28;20377;-47
2021/08/13 05:37:24;;;;;;;;;;;;;;;17.54;92.11;101951.28;5072238;28;19963;-51
2021/08/13 05:39:51;;;;;;;;;;;;;;;17.56;91.92;101952.84;5064544;28;20325;-57
2021/08/13 05:42:17;;;;;;;;;;;;;;;17.65;91.81;101958.41;5081395;28;19928;-57
2021/08/13 05:44:44;;;;;;;;;;;;;;;17.69;91.94;101955.38;5086121;28;19947;-57
2021/08/13 05:47:11;;;;;;;;;;;;;;;17.78;91.84;101951.19;5068383;28;19929;-46
2021/08/13 05:49:38;;;;;;;;;;;;;;;17.86;91.70;101958.53;5064916;28;19933;-47
2021/08/13 05:52:05;;;;;;;;;;;;;;;17.94;91.26;101956.16;5072256;28;19924;-45
2021/08/13 05:54:31;;;;;;;;;;;;;;;18.03;90.76;101965.25;5062085;28;20336;-44
2021/08/13 05:56:58;;;;;;;;;;;;;;;18.11;90.73;101957.50;5077836;28;19925;-47
2021/08/13 05:59:25;;;;;;;;;;;;;;;18.15;90.49;101961.59;5077972;28;19948;-46
2021/08/13 06:01:51;;;;;;;;;;;;;;;18.22;89.90;101961.97;5083768;28;20359;-46
2021/08/13 06:04:18;;;;;;;;;;;;;;;18.28;89.83;101953.47;5080102;28;20321;-58
2021/08/13 06:06:45;;;;;;;;;;;;;;;18.34;88.91;101947.66;5063890;28;19924;-57
2021/08/13 06:09:11;;;;;;;;;;;;;;;18.40;88.39;101951.63;5084007;28;20387;-57
2021/08/13 06:11:38;;;;;;;;;;;;;;;18.47;88.15;101951.97;5079738;28;20299;-57
2021/08/13 06:14:05;;;;;;;;;;;;;;;18.53;87.29;101943.50;5078136;28;20020;-47
2021/08/13 06:16:31;;;;;;;;;;;;;;;18.60;87.20;101947.34;5080154;28;19924;-46
2021/08/13 06:18:58;;;;;;;;;;;;;;;18.66;86.49;101949.50;5081381;28;19931;-57
2021/08/13 06:21:25;;;;;;;;;;;;;;;18.72;85.78;101935.69;5082912;28;20450;-57
2021/08/13 06:23:52;;;;;;;;;;;;;;;18.75;85.21;101938.09;5081021;28;19931;-58
2021/08/13 06:26:18;;;;;;;;;;;;;;;18.82;84.98;101945.59;5078079;28;20430;-58
2021/08/13 06:28:45;;;;;;;;;;;;;;;18.87;84.84;101941.56;5079324;28;19931;-58
2021/08/13 06:31:12;;;;;;;;;;;;;;;18.93;84.07;101942.88;5082213;28;20439;-58
2021/08/13 06:33:40;;;;;;;;;;;;;;;18.86;81.91;101942.53;5080510;28;20456;-58
2021/08/13 06:36:07;;;;;;;;;;;;;;;18.96;81.34;101942.63;5083003;28;20394;-58
2021/08/13 06:38:34;;;;;;;;;;;;;;;18.97;81.09;101948.81;5069972;28;19924;-58
2021/08/13 06:41:00;;;;;;;;;;;;;;;19.01;81.72;101952.94;5072798;28;19925;-58
2021/08/13 06:43:27;;;;;;;;;;;;;;;19.08;81.58;101951.44;5042823;28;19928;-58
2021/08/13 06:45:54;;;;;;;;;;;;;;;19.09;80.84;101953.13;5077543;28;19928;-58
2021/08/13 06:48:20;;;;;;;;;;;;;;;19.15;80.57;101954.44;5080550;28;19977;-58
2021/08/13 06:50:47;;;;;;;;;;;;;;;19.20;80.04;101961.06;5080431;28;19977;-58
2021/08/13 06:53:14;;;;;;;;;;;;;;;19.23;79.31;101954.63;5082072;28;19974;-58
2021/08/13 06:55:41;;;;;;;;;;;;;;;19.30;79.22;101955.78;5063359;28;19931;-58
2021/08/13 06:58:07;;;;;;;;;;;;;;;19.35;79.30;101966.91;5076982;28;19928;-59
2021/08/13 07:00:34;;;;;;;;;;;;;;;19.40;79.26;101966.50;5079283;28;19925;-52
2021/08/13 07:03:01;;;;;;;;;;;;;;;19.44;79.08;101967.94;5064742;28;19924;-58
2021/08/13 07:05:28;;;;;;;;;;;;;;;19.50;79.63;101978.09;5063230;28;19939;-59
2021/08/13 07:07:54;;;;;;;;;;;;;;;19.56;79.64;101976.72;5077706;28;19928;-59
2021/08/13 07:10:21;;;;;;;;;;;;;;;19.61;78.11;101974.50;5063728;28;19951;-58
2021/08/13 07:12:48;;;;;;;;;;;;;;;19.65;78.47;101973.28;5080736;28;19932;-59
2021/08/13 07:15:15;;;;;;;;;;;;;;;19.71;77.88;101978.06;5080256;28;19924;-58
2021/08/13 07:17:42;;;;;;;;;;;;;;;19.92;78.37;101974.56;5076809;28;19925;-59
2021/08/13 07:20:09;;;;;;;;;;;;;;;20.01;77.19;101970.22;5078032;28;19924;-59
2021/08/13 07:22:36;;;;;;;;;;;;;;;20.15;77.19;101977.88;5061106;28;19952;-59
2021/08/13 07:25:03;;;;;;;;;;;;;;;20.24;76.67;101978.88;5077443;28;20351;-57
2021/08/13 07:27:29;;;;;;;;;;;;;;;20.33;75.71;101996.75;5083257;28;19924;-58
2021/08/13 07:29:56;;;;;;;;;;;;;;;20.39;76.45;102006.88;5078705;28;19967;-58
2021/08/13 07:32:23;;;;;;;;;;;;;;;20.49;75.67;102008.75;5079216;28;19924;-57
2021/08/13 07:34:49;;;;;;;;;;;;;;;20.53;75.82;101996.81;5080948;28;20346;-58
2021/08/13 07:37:19;;;;;;;;;;;;;;;20.50;74.96;101997.09;5085394;28;19930;-51
2021/08/13 07:39:48;;;;;;;;;;;;;;;20.58;75.00;102005.25;5077969;28;19924;-47
2021/08/13 07:42:17;;;;;;;;;;;;;;;20.74;75.32;102005.59;5079301;28;19939;-49
2021/08/13 07:44:44;;;;;;;;;;;;;;;20.75;74.84;101998.41;5055270;28;19956;-48
2021/08/13 07:47:12;;;;;;;;;;;;;;;20.85;73.92;102001.94;5080463;28;20023;-45
2021/08/13 07:49:39;;;;;;;;;;;;;;;20.96;73.08;102000.97;5081798;28;19978;-58
2021/08/13 07:52:06;;;;;;;;;;;;;;;21.05;73.52;102002.81;5077541;28;20307;-58
2021/08/13 07:54:32;;;;;;;;;;;;;;;21.22;71.91;102001.22;5060357;28;19924;-58
2021/08/13 07:56:59;;;;;;;;;;;;;;;21.25;70.73;102000.09;5077968;28;19956;-58
2021/08/13 07:59:26;;;;;;;;;;;;;;;21.39;71.91;101990.78;5060110;28;19931;-58
2021/08/13 08:01:52;;;;;;;;;;;;;;;21.48;71.80;102002.47;5080168;28;20298;-58
2021/08/13 08:04:19;;;;;;;;;;;;;;;21.59;71.61;101999.66;5077567;28;19924;-58
2021/08/13 08:06:46;;;;;;;;;;;;;;;21.59;70.54;101999.66;5064445;28;19930;-50
2021/08/13 08:09:13;;;;;;;;;;;;;;;21.74;70.41;102010.75;5059463;28;19924;-48
2021/08/13 08:11:39;;;;;;;;;;;;;;;21.84;69.63;102029.47;5072199;28;19928;-47
2021/08/13 08:14:08;;;;;;;;;;;;;;;21.82;69.38;102037.63;5070403;28;20132;-51
2021/08/13 08:16:35;;;;;;;;;;;;;;;21.93;69.00;102045.50;5069707;28;19924;-50
2021/08/13 08:19:02;;;;;;;;;;;;;;;22.13;69.41;102050.78;5054689;28;19955;-48
2021/08/13 08:21:28;;;;;;;;;;;;;;;22.37;68.99;102033.38;5086736;28;20398;-48
2021/08/13 08:23:55;;;;;;;;;;;;;;;22.56;69.05;102027.06;5065488;28;19955;-49
2021/08/13 08:26:22;;;;;;;;;;;;;;;22.78;67.81;102021.28;5063752;28;20128;-47
2021/08/13 08:28:48;;;;;;;;;;;;;;;23.00;67.36;102024.50;5074593;28;19928;-58
2021/08/13 08:31:15;;;;;;;;;;;;;;;23.13;66.18;102022.28;5075865;28;19928;-58
2021/08/13 08:33:42;;;;;;;;;;;;;;;23.30;65.23;102038.50;5079417;28;19924;-48
2021/08/13 08:36:08;;;;;;;;;;;;;;;23.26;65.49;102048.72;5083206;28;19928;-51
2021/08/13 08:38:35;;;;;;;;;;;;;;;23.50;64.82;102066.00;5081809;28;19932;-50
2021/08/13 08:41:03;;;;;;;;;;;;;;;23.27;63.85;102065.66;5064347;28;19938;-58
2021/08/13 08:43:29;;;;;;;;;;;;;;;23.41;65.18;102058.91;5081983;28;19924;-58
2021/08/13 08:45:57;;;;;;;;;;;;;;;23.68;64.84;102047.19;5067839;28;19944;-52
2021/08/13 08:48:24;;;;;;;;;;;;;;;23.90;63.29;102034.25;5072700;28;20015;-52
2021/08/13 08:50:50;;;;;;;;;;;;;;;23.91;62.24;102025.19;5059157;28;19982;-47
2021/08/13 08:53:21;;;;;;;;;;;;;;;23.95;61.94;102031.94;5069291;28;20402;-51
2021/08/13 08:55:47;;;;;;;;;;;;;;;24.13;61.55;102040.78;5066479;28;19954;-49
2021/08/13 08:58:14;;;;;;;;;;;;;;;24.26;59.80;102036.78;5065207;28;19935;-46
2021/08/13 09:00:41;;;;;;;;;;;;;;;24.57;60.47;102038.91;5085928;28;19924;-52
2021/08/13 09:03:08;;;;;;;;;;;;;;;24.67;59.96;102044.19;5055358;28;20327;-46
2021/08/13 09:05:35;;;;;;;;;;;;;;;24.81;59.72;102048.91;5053720;28;19978;-48
2021/08/13 09:08:02;;;;;;;;;;;;;;;24.85;58.34;102054.81;5074093;28;19924;-45
2021/08/13 09:10:28;;;;;;;;;;;;;;;24.93;57.98;102049.44;5080995;28;20345;-47
2021/08/13 09:12:55;;;;;;;;;;;;;;;25.17;57.15;102047.78;5064394;28;20057;-47
2021/08/13 09:15:25;;;;;;;;;;;;;;;25.14;57.11;102052.50;5082852;28;19924;-46
2021/08/13 09:18:12;;;;;;;;;;;;;;;25.30;57.56;102048.97;5074437;28;19931;-49
2021/08/13 09:20:39;;;;;;;;;;;;;;;25.51;56.82;102044.09;5053484;28;19924;-47
2021/08/13 09:23:06;;;;;;;;;;;;;;;25.54;55.78;102049.16;5051407;28;19936;-46
2021/08/13 09:25:32;;;;;;;;;;;;;;;25.72;55.00;102043.56;5082395;28;20318;-47
2021/08/13 09:27:59;;;;;;;;;;;;;;;25.61;54.75;102055.53;5074132;28;20442;-49
2021/08/13 09:30:45;;;;;;;;;;;;;;;25.79;56.04;102063.41;5059465;28;20349;-45
2021/08/13 09:33:12;;;;;;;;;;;;;;;26.25;53.85;102068.19;5055824;28;19928;-58
2021/08/13 09:35:39;;;;;;;;;;;;;;;26.48;53.44;102068.25;5080589;28;20286;-58
2021/08/13 09:38:10;;;;;;;;;;;;;;;26.73;52.26;102076.25;5082476;28;19924;-58
2021/08/13 09:40:41;;;;;;;;;;;;;;;26.74;52.76;102078.78;5072749;28;20379;-57
2021/08/13 09:43:07;;;;;;;;;;;;;;;26.64;52.25;102088.91;5051300;28;19929;-58
2021/08/13 09:45:34;;;;;;;;;;;;;;;26.86;52.87;102087.31;5074933;28;20383;-57
2021/08/13 09:48:01;;;;;;;;;;;;;;;26.82;51.72;102085.97;5073802;28;19924;-58
2021/08/13 09:50:34;;;;;;;;;;;;;;;26.78;51.94;102085.50;5074963;28;19924;-57
2021/08/13 09:53:08;;;;;;;;;;;;;;;26.84;52.91;102089.31;5088519;28;19931;-57
2021/08/13 09:55:35;;;;;;;;;;;;;;;26.92;52.13;102089.28;5083701;28;19954;-57
2021/08/13 09:58:02;;;;;;;;;;;;;;;26.92;49.89;102083.06;5083780;28;20421;-58
2021/08/13 10:00:29;;;;;;;;;;;;;;;27.19;49.58;102097.88;5076976;28;19925;-57
2021/08/13 10:03:02;;;;;;;;;;;;;;;27.20;48.40;102090.59;5077657;28;19929;-58
2021/08/13 10:05:28;;;;;;;;;;;;;;;26.82;49.25;102077.88;5070858;28;19925;-58
2021/08/13 10:07:57;;;;;;;;;;;;;;;26.85;49.13;102074.81;5071021;28;19993;-45
2021/08/13 10:10:34;;;;;;;;;;;;;;;27.12;48.83;102088.81;5073403;28;19928;-48
2021/08/13 10:13:01;;;;;;;;;;;;;;;27.33;48.71;102091.66;5082875;28;20010;-48
2021/08/13 10:15:28;;;;;;;;;;;;;;;27.29;47.65;102086.81;5018919;28;20406;-50
2021/08/13 10:17:56;;;;;;;;;;;;;;;27.29;45.90;102097.63;5071041;28;19978;-49
2021/08/13 10:20:27;;;;;;;;;;;;;;;27.34;46.36;102095.22;5073942;28;19924;-50
2021/08/13 10:22:53;;;;;;;;;;;;;;;27.33;46.75;102088.13;5040695;28;19925;-50
2021/08/13 10:25:20;;;;;;;;;;;;;;;27.32;45.68;102086.44;5073777;28;19947;-47
2021/08/13 10:27:47;;;;;;;;;;;;;;;27.51;45.01;102079.72;5059131;28;19924;-50
2021/08/13 10:30:18;;;;;;;;;;;;;;;27.53;44.03;102079.56;5089088;28;20136;-49
2021/08/13 10:32:44;;;;;;;;;;;;;;;27.69;44.50;102075.84;5091346;28;20433;-50
2021/08/13 10:35:11;;;;;;;;;;;;;;;27.89;43.71;102089.69;5090733;28;19973;-51
2021/08/13 10:37:38;;;;;;;;;;;;;;;27.32;40.91;102091.84;5068354;28;19925;-48
2021/08/13 10:40:06;;;;;;;;;;;;;;;27.40;41.87;102096.38;5083097;28;19928;-47
2021/08/13 10:42:32;;;;;;;;;;;;;;;27.66;41.83;102091.44;5042163;28;20015;-51
2021/08/13 10:45:04;;;;;;;;;;;;;;;27.76;41.51;102093.88;5065530;28;20482;-47
2021/08/13 10:47:33;;;;;;;;;;;;;;;27.82;41.67;102089.56;5080445;28;19924;-50
2021/08/13 10:50:00;;;;;;;;;;;;;;;27.48;41.76;102088.22;5059498;28;19925;-48
2021/08/13 10:52:33;;;;;;;;;;;;;;;27.97;42.16;102089.59;5080165;28;19925;-49
2021/08/13 10:55:00;;;;;;;;;;;;;;;28.30;42.71;102081.94;5079902;28;20379;-50
2021/08/13 10:57:45;;;;;;;;;;;;;;;28.58;41.22;102091.22;5074460;28;19931;-49
2021/08/13 11:00:13;;;;;;;;;;;;;;;28.28;41.20;102083.19;5076118;28;19924;-50
2021/08/13 11:02:39;;;;;;;;;;;;;;;28.59;42.36;102084.78;5060947;28;19925;-52
2021/08/13 11:05:06;;;;;;;;;;;;;;;28.58;40.28;102091.22;5055630;28;19963;-51
2021/08/13 11:07:52;;;;;;;;;;;;;;;28.39;39.30;102093.53;5071471;28;20284;-51
2021/08/13 11:10:42;;;;;;;;;;;;;;;28.26;40.82;102099.56;5071626;28;20446;-45
2021/08/13 11:13:12;;;;;;;;;;;;;;;28.06;40.52;102103.88;5044479;28;20304;-49
2021/08/13 11:15:39;;;;;;;;;;;;;;;27.94;41.50;102107.00;5059579;28;19925;-48
2021/08/13 11:18:24;;;;;;;;;;;;;;;27.88;41.03;102105.03;5072350;28;19997;-47
2021/08/13 11:20:51;;;;;;;;;;;;;;;27.64;42.83;102106.13;5051166;28;19962;-50
2021/08/13 11:23:17;;;;;;;;;;;;;;;27.64;41.74;102109.66;5059520;28;19935;-49
2021/08/13 11:25:48;;;;;;;;;;;;;;;27.71;42.30;102098.97;5071676;28;19970;-50
2021/08/13 11:28:16;;;;;;;;;;;;;;;27.70;42.85;102102.69;5070261;28;19931;-49
2021/08/13 11:30:43;;;;;;;;;;;;;;;27.62;42.61;102100.94;5060658;28;19924;-48
2021/08/13 11:33:25;;;;;;;;;;;;;;;27.77;43.23;102105.50;5056325;28;20003;-47
2021/08/13 11:35:55;;;;;;;;;;;;;;;27.93;42.31;102104.50;5061494;28;19925;-47
2021/08/13 11:38:41;;;;;;;;;;;;;;;27.97;43.16;102105.81;5057720;28;19924;-48
2021/08/13 11:41:25;;;;;;;;;;;;;;;28.04;42.14;102106.75;5056281;28;19924;-48
2021/08/13 11:43:56;;;;;;;;;;;;;;;27.91;42.72;102107.41;5056866;28;19970;-50
2021/08/13 11:46:35;;;;;;;;;;;;;;;27.66;42.53;102101.38;5058498;28;19933;-49
2021/08/13 11:49:03;;;;;;;;;;;;;;;27.82;42.95;102116.59;5057206;28;19932;-50
2021/08/13 11:51:30;;;;;;;;;;;;;;;28.07;41.99;102117.19;5041505;28;19978;-47
2021/08/13 11:53:56;;;;;;;;;;;;;;;28.03;41.66;102115.91;5035670;28;19925;-50
2021/08/13 11:56:24;;;;;;;;;;;;;;;28.10;42.87;102114.16;5059262;28;19924;-46
2021/08/13 11:58:57;;;;;;;;;;;;;;;27.93;42.48;102096.41;5062724;28;19925;-51
2021/08/13 12:01:26;;;;;;;;;;;;;;;27.72;42.93;102106.06;5061380;28;19975;-46
2021/08/13 12:03:53;;;;;;;;;;;;;;;27.95;43.02;102103.28;5057611;28;19925;-47
2021/08/13 12:06:20;;;;;;;;;;;;;;;28.13;43.06;102099.41;5068821;28;19924;-49
2021/08/13 12:08:47;;;;;;;;;;;;;;;27.91;42.86;102101.13;5052652;28;20731;-49
2021/08/13 12:11:19;;;;;;;;;;;;;;;27.82;42.47;102100.38;5053464;28;20283;-47
2021/08/13 12:13:46;;;;;;;;;;;;;;;27.76;43.14;102103.81;5055698;28;19925;-50
2021/08/13 12:16:16;;;;;;;;;;;;;;;27.93;43.00;102104.50;5052120;28;19924;-47
2021/08/13 12:18:42;;;;;;;;;;;;;;;28.04;42.77;102100.53;5052837;28;20403;-51
2021/08/13 12:21:09;;;;;;;;;;;;;;;28.08;42.08;102109.94;5054487;28;19925;-46
2021/08/13 12:23:36;;;;;;;;;;;;;;;28.08;42.15;102104.53;5055294;28;19929;-46
2021/08/13 12:26:03;;;;;;;;;;;;;;;27.80;41.45;102116.78;5054972;28;19925;-48
2021/08/13 12:28:30;;;;;;;;;;;;;;;27.77;40.47;102116.31;5068628;28;19974;-46
2021/08/13 12:31:07;;;;;;;;;;;;;;;27.91;40.53;102114.66;5055186;28;19929;-49
2021/08/13 12:33:34;;;;;;;;;;;;;;;28.17;39.85;102112.38;5064326;28;19925;-45
2021/08/13 12:36:00;;;;;;;;;;;;;;;28.18;40.24;102126.72;5072699;28;19931;-60
2021/08/13 12:38:31;;;;;;;;;;;;;;;28.26;39.03;102131.19;5055972;28;19932;-59